Time;durP1;ratioP1;P1;durP2;ratioP2;P2;SDS_P1;SDS_P2;PMS_P1;PMS_P2;Temp;Humidity;BMP_temperature;BMP_pressure;BME280_temperature;BME280_humidity;BME280_pressure;Samples;Min_cycle;Max_cycle;Signal;HPM_P1;HPM_P2
2022/11/27 00:01:16;;;;;;;14.50;4.85;;;6.30;99.90;;;;;;5060301;28;20099;-76
2022/11/27 00:03:42;;;;;;;13.95;4.63;;;6.30;99.90;;;;;;5059973;28;20496;-76
2022/11/27 00:06:10;;;;;;;;;;;6.30;99.90;;;;;;5061396;28;20056;-76
2022/11/27 00:08:36;;;;;;;12.27;4.65;;;6.20;99.90;;;;;;5062059;28;20272;-76
2022/11/27 00:11:06;;;;;;;;;;;6.20;99.90;;;;;;5058857;28;20051;-76
2022/11/27 00:13:31;;;;;;;13.57;5.25;;;6.20;99.90;;;;;;5063330;28;19959;-76
2022/11/27 00:15:57;;;;;;;;;;;6.20;99.90;;;;;;5060743;28;20095;-76
2022/11/27 00:18:23;;;;;;;14.98;5.00;;;6.20;99.90;;;;;;5061498;28;19920;-76
2022/11/27 00:20:48;;;;;;;;;;;7.50;99.90;;;;;;5061105;28;20400;-76
2022/11/27 00:23:14;;;;;;;14.35;4.55;;;6.20;99.90;;;;;;5061758;28;19925;-76
2022/11/27 00:25:39;;;;;;;;;;;6.20;99.90;;;;;;5060840;28;20044;-76
2022/11/27 00:28:05;;;;;;;11.43;4.82;;;6.20;99.90;;;;;;5061213;28;19925;-76
2022/11/27 00:30:30;;;;;;;;;;;6.20;99.90;;;;;;5062480;28;20377;-76
2022/11/27 00:32:56;;;;;;;15.60;4.95;;;6.20;99.90;;;;;;5061583;28;19928;-76
2022/11/27 00:35:21;;;;;;;;;;;6.30;99.90;;;;;;5059503;28;20052;-75
2022/11/27 00:37:47;;;;;;;12.93;5.85;;;6.20;99.90;;;;;;5062260;28;20029;-76
2022/11/27 00:40:13;;;;;;;;;;;6.10;99.90;;;;;;5060958;28;20040;-76
2022/11/27 00:42:38;;;;;;;13.30;4.20;;;6.10;99.90;;;;;;5059909;28;19927;-76
2022/11/27 00:45:04;;;;;;;;;;;7.30;99.90;;;;;;5061183;28;20094;-76
2022/11/27 00:47:29;;;;;;;15.93;4.40;;;6.10;99.90;;;;;;5058474;28;20011;-76
2022/11/27 00:49:55;;;;;;;;;;;6.10;99.90;;;;;;5062265;28;20158;-76
2022/11/27 00:52:21;;;;;;;9.75;4.47;;;6.70;99.90;;;;;;5059599;28;19921;-76
2022/11/27 00:54:46;;;;;;;;;;;6.00;99.90;;;;;;5059400;28;20040;-76
2022/11/27 00:57:14;;;;;;;18.40;5.63;;;6.00;99.90;;;;;;5061501;28;20372;-75
2022/11/27 00:59:40;;;;;;;13.32;4.35;;;4.40;99.90;;;;;;5059308;28;20102;-76
2022/11/27 01:02:05;;;;;;;;;;;6.10;99.90;;;;;;5061681;28;20504;-76
2022/11/27 01:04:31;;;;;;;15.20;4.38;;;6.00;99.90;;;;;;5060647;28;19927;-76
2022/11/27 01:06:56;;;;;;;;;;;6.00;99.90;;;;;;5059569;28;20061;-76
2022/11/27 01:09:22;;;;;;;12.50;4.93;;;6.10;99.90;;;;;;5061846;28;20368;-75
2022/11/27 01:11:48;;;;;;;;;;;6.10;99.90;;;;;;5058638;28;20041;-76
2022/11/27 01:14:17;;;;;;;12.95;4.45;;;6.10;99.90;;;;;;5061654;28;19920;-76
2022/11/27 01:16:43;;;;;;;15.52;5.05;;;6.80;99.90;;;;;;5063822;28;20036;-76
2022/11/27 01:19:09;;;;;;;;;;;6.20;99.90;;;;;;5066413;28;20439;-76
2022/11/27 01:21:35;;;;;;;13.48;5.15;;;6.20;99.90;;;;;;5062968;28;19921;-76
2022/11/27 01:24:01;;;;;;;;;;;6.40;99.90;;;;;;5064485;28;20044;-76
2022/11/27 01:26:27;;;;;;;17.30;5.40;;;6.40;99.90;;;;;;5063269;28;20423;-76
2022/11/27 01:28:53;;;;;;;;;;;6.40;99.90;;;;;;5064862;28;20123;-76
2022/11/27 01:31:22;;;;;;;8.98;3.70;;;7.00;99.90;;;;;;5061912;28;19924;-76
2022/11/27 01:33:52;;;;;;;10.65;3.80;;;6.50;99.90;;;;;;5066556;28;20072;-76
2022/11/27 01:36:18;;;;;;;14.73;4.35;;;6.50;99.90;;;;;;5065660;28;20040;-76
2022/11/27 01:38:43;;;;;;;;;;;6.50;99.90;;;;;;5063411;28;20071;-76
2022/11/27 01:41:14;;;;;;;7.18;3.03;;;6.50;99.90;;;;;;5064081;28;19927;-76
2022/11/27 01:43:45;;;;;;;10.80;4.45;;;6.50;99.90;;;;;;5064679;28;20049;-76
2022/11/27 01:46:38;;;;;;;10.07;3.72;;;6.50;99.90;;;;;;5066563;28;20044;-76
2022/11/27 01:49:12;;;;;;;10.77;4.45;;;6.60;99.90;;;;;;5063825;28;20048;-75
2022/11/27 01:51:48;;;;;;;14.50;4.35;;;6.60;99.90;;;;;;5062837;28;20124;-76
2022/11/27 01:54:15;;;;;;;13.45;4.15;;;6.50;99.90;;;;;;5063062;28;20059;-76
2022/11/27 01:56:43;;;;;;;11.25;5.00;;;6.60;99.90;;;;;;5058763;28;20041;-76
2022/11/27 01:59:10;;;;;;;15.90;4.80;;;6.60;99.90;;;;;;5062119;28;20057;-76
2022/11/27 02:01:35;;;;;;;12.80;4.55;;;6.50;99.90;;;;;;5063978;28;20127;-75
2022/11/27 02:04:01;;;;;;;;;;;6.50;99.90;;;;;;5063295;28;20241;-75
2022/11/27 02:06:27;;;;;;;13.20;4.60;;;4.40;99.90;;;;;;5063871;28;19920;-76
2022/11/27 02:08:53;;;;;;;;;;;6.40;99.90;;;;;;5065244;28;20488;-76
2022/11/27 02:12:10;;;;;;;10.07;4.20;;;6.50;99.90;;;;;;5061809;28;20052;-76
2022/11/27 02:14:58;;;;;;;12.98;4.30;;;6.50;99.90;;;;;;5011313;28;20076;-75
2022/11/27 02:17:32;;;;;;;11.02;4.70;;;6.50;99.90;;;;;;5062575;28;20045;-76
2022/11/27 02:20:19;;;;;;;15.82;3.97;;;6.40;99.90;;;;;;5062134;28;20526;-76
2022/11/27 02:23:12;;;;;;;11.20;4.35;;;6.50;99.90;;;;;;5062450;28;20047;-76
2022/11/27 02:26:17;;;;;;;10.80;4.50;;;6.50;99.90;;;;;;5060118;28;20374;-76
2022/11/27 02:29:12;;;;;;;16.75;4.60;;;6.40;99.90;;;;;;5042227;28;20060;-76
2022/11/27 02:31:38;;;;;;;15.05;5.00;;;6.40;99.90;;;;;;5080819;28;20123;-76
2022/11/27 02:34:22;;;;;;;;;;;6.40;99.90;;;;;;5062838;28;20556;-76
2022/11/27 02:36:57;;;;;;;12.00;4.53;;;6.30;99.90;;;;;;5062246;28;19951;-76
2022/11/27 02:39:47;;;;;;;11.80;4.63;;;6.30;99.90;;;;;;5065619;28;20040;-76
2022/11/27 02:42:19;;;;;;;11.80;4.43;;;6.80;99.90;;;;;;5053247;28;20519;-76
2022/11/27 02:44:59;;;;;;;12.45;4.63;;;6.40;99.90;;;;;;5063010;28;20045;-76
2022/11/27 02:47:27;;;;;;;8.40;4.60;;;6.30;99.90;;;;;;5063903;28;20037;-75
2022/11/27 02:49:55;;;;;;;10.13;4.65;;;6.40;99.90;;;;;;5062630;28;20040;-76
2022/11/27 02:52:25;;;;;;;9.68;5.13;;;6.40;99.90;;;;;;5063463;28;20040;-76
2022/11/27 02:54:52;;;;;;;16.85;5.25;;;6.30;99.90;;;;;;5066330;28;20048;-76
2022/11/27 02:57:19;;;;;;;11.70;4.82;;;6.30;99.90;;;;;;5068377;28;20056;-76
2022/11/27 02:59:45;;;;;;;9.50;4.28;;;6.30;99.90;;;;;;5065458;28;20480;-76
2022/11/27 03:02:19;;;;;;;12.55;4.10;;;6.40;99.90;;;;;;5064547;28;20527;-76
2022/11/27 03:04:50;;;;;;;10.77;3.85;;;6.40;99.90;;;;;;5063087;28;20036;-77
2022/11/27 03:07:26;;;;;;;11.23;3.85;;;6.40;99.90;;;;;;5061551;28;20044;-76
2022/11/27 03:09:55;;;;;;;;;;;6.50;99.90;;;;;;5063196;28;20098;-76
2022/11/27 03:12:21;;;;;;;10.60;4.28;;;6.60;99.90;;;;;;5061047;28;19920;-76
2022/11/27 03:14:47;;;;;;;;;;;6.40;99.90;;;;;;5056469;28;20063;-76
2022/11/27 03:17:18;;;;;;;9.73;4.70;;;6.40;99.90;;;;;;5062952;28;19921;-77
2022/11/27 03:19:55;;;;;;;10.35;4.45;;;6.50;99.90;;;;;;5057522;28;20080;-76
2022/11/27 03:22:21;;;;;;;9.82;4.00;;;6.40;99.90;;;;;;5062512;28;20047;-76
2022/11/27 03:24:48;;;;;;;;;;;6.50;99.90;;;;;;5060194;28;20830;-76
2022/11/27 03:27:21;;;;;;;13.82;3.95;;;6.70;99.90;;;;;;5059917;28;19928;-77
2022/11/27 03:29:48;;;;;;;12.30;4.05;;;6.30;99.90;;;;;;5060362;28;20481;-77
2022/11/27 03:32:14;;;;;;;9.48;4.13;;;6.50;99.90;;;;;;5062084;28;20037;-76
2022/11/27 03:34:40;;;;;;;;;;;6.50;99.90;;;;;;5061887;28;20402;-76
2022/11/27 03:37:05;;;;;;;11.90;4.55;;;6.40;99.90;;;;;;5061854;28;19921;-76
2022/11/27 03:39:31;;;;;;;;;;;6.50;99.90;;;;;;5062827;28;20082;-76
2022/11/27 03:42:24;;;;;;;9.30;4.35;;;6.50;99.90;;;;;;5061864;28;19920;-77
2022/11/27 03:45:15;;;;;;;15.60;4.88;;;6.40;99.90;;;;;;5063758;28;20079;-76
2022/11/27 03:48:25;;;;;;;12.75;5.22;;;6.50;99.90;;;;;;5050301;28;20060;-76
2022/11/27 03:51:04;;;;;;;8.88;4.13;;;6.40;99.90;;;;;;4958558;28;20049;-76
2022/11/27 03:53:54;;;;;;;11.38;4.57;;;6.40;99.90;;;;;;5048274;28;20362;-76
2022/11/27 03:56:42;;;;;;;13.25;4.75;;;6.30;99.90;;;;;;5060094;28;20037;-76
2022/11/27 03:59:32;;;;;;;9.90;4.00;;;6.30;99.90;;;;;;5061595;28;20539;-75
2022/11/27 04:01:58;;;;;;;8.45;3.92;;;6.30;99.90;;;;;;5061059;28;20065;-76
2022/11/27 04:04:24;;;;;;;;;;;6.30;99.90;;;;;;5063263;28;20037;-77
2022/11/27 04:06:49;;;;;;;13.35;4.70;;;6.30;99.90;;;;;;5060546;28;20403;-77
2022/11/27 04:09:15;;;;;;;;;;;6.40;99.90;;;;;;5060010;28;20048;-76
2022/11/27 04:11:43;;;;;;;9.75;4.78;;;6.40;99.90;;;;;;5060754;28;19920;-76
2022/11/27 04:14:09;;;;;;;10.23;4.65;;;6.30;99.90;;;;;;5061285;28;20041;-76
2022/11/27 04:16:34;;;;;;;;;;;6.20;99.90;;;;;;5062085;28;20036;-77
2022/11/27 04:19:00;;;;;;;12.68;5.13;;;6.20;99.90;;;;;;5061935;28;19920;-76
2022/11/27 04:21:25;;;;;;;;;;;6.20;99.90;;;;;;5060827;28;20151;-77
2022/11/27 04:23:51;;;;;;;10.05;5.55;;;6.20;99.90;;;;;;5062246;28;20375;-76
2022/11/27 04:26:16;;;;;;;;;;;6.30;99.90;;;;;;5059118;28;20043;-77
2022/11/27 04:28:42;;;;;;;10.15;4.63;;;6.30;99.90;;;;;;5062076;28;19920;-76
2022/11/27 04:31:08;;;;;;;;;;;7.20;99.90;;;;;;5060320;28;20109;-76
2022/11/27 04:33:33;;;;;;;11.80;4.15;;;5.60;99.90;;;;;;5060944;28;19921;-77
2022/11/27 04:35:59;;;;;;;;;;;6.20;99.90;;;;;;5060671;28;20484;-76
2022/11/27 04:38:24;;;;;;;8.77;4.78;;;6.20;99.90;;;;;;5061901;28;19963;-76
2022/11/27 04:40:51;;;;;;;;;;;6.20;99.90;;;;;;5060645;28;20484;-77
2022/11/27 04:43:16;;;;;;;10.88;4.97;;;6.20;99.90;;;;;;5061963;28;19924;-77
2022/11/27 04:45:45;;;;;;;;;;;6.20;99.90;;;;;;5057471;28;20037;-77
2022/11/27 04:48:11;;;;;;;15.25;5.07;;;6.10;99.90;;;;;;5062411;28;20045;-77
2022/11/27 04:50:36;;;;;;;;;;;6.20;99.90;;;;;;5058944;28;20508;-77
2022/11/27 04:53:02;;;;;;;11.85;4.53;;;6.30;99.90;;;;;;5059287;28;19927;-77
2022/11/27 04:55:28;;;;;;;;;;;6.30;99.90;;;;;;5060723;28;20152;-77
2022/11/27 04:57:53;;;;;;;10.02;4.47;;;6.30;99.90;;;;;;5066075;28;19966;-77
2022/11/27 05:00:19;;;;;;;;;;;6.40;99.90;;;;;;5061590;28;20037;-76
2022/11/27 05:02:45;;;;;;;7.53;4.53;;;6.20;99.90;;;;;;5059315;28;19927;-77
2022/11/27 05:05:10;;;;;;;;;;;6.20;99.90;;;;;;5063856;28;20193;-77
2022/11/27 05:07:39;;;;;;;13.95;5.22;;;6.30;99.90;;;;;;5061051;28;19924;-76
2022/11/27 05:10:05;;;;;;;;;;;6.30;99.90;;;;;;5061944;28;20040;-76
2022/11/27 05:12:31;;;;;;;13.50;5.30;;;6.20;99.90;;;;;;5059264;28;20372;-76
2022/11/27 05:14:56;;;;;;;;;;;6.30;99.90;;;;;;5060431;28;20047;-77
2022/11/27 05:17:22;;;;;;;14.10;5.43;;;6.30;99.90;;;;;;5061489;28;20391;-77
2022/11/27 05:19:47;;;;;;;;;;;6.30;99.90;;;;;;5059068;28;20045;-77
2022/11/27 05:22:13;;;;;;;9.25;4.90;;;6.30;99.90;;;;;;5063102;28;19921;-74
2022/11/27 05:24:38;;;;;;;;;;;6.30;99.90;;;;;;5058885;28;20040;-75
2022/11/27 05:27:04;;;;;;;15.45;5.55;;;6.20;99.90;;;;;;5062608;28;20443;-75
2022/11/27 05:29:29;;;;;;;;;;;6.20;99.90;;;;;;5058597;28;20041;-75
2022/11/27 05:31:55;;;;;;;8.63;4.38;;;6.20;99.90;;;;;;5060238;28;19927;-74
2022/11/27 05:34:21;;;;;;;;;;;6.20;99.90;;;;;;5059513;28;20083;-75
2022/11/27 05:36:46;;;;;;;8.73;4.63;;;6.10;99.90;;;;;;5060198;28;19944;-75
2022/11/27 05:39:12;;;;;;;;;;;6.20;99.90;;;;;;5061286;28;20075;-75
2022/11/27 05:41:39;;;;;;;7.68;3.88;;;6.30;99.90;;;;;;5056875;28;19921;-75
2022/11/27 05:44:05;;;;;;;10.30;5.00;;;6.30;99.90;;;;;;5058844;28;20048;-75
2022/11/27 05:46:31;;;;;;;15.07;4.53;;;6.30;99.90;;;;;;5059500;28;20047;-75
2022/11/27 05:48:56;;;;;;;11.98;5.45;;;6.30;99.90;;;;;;5061357;28;20082;-75
2022/11/27 05:51:22;;;;;;;;;;;6.20;99.90;;;;;;5061007;28;20036;-75
2022/11/27 05:53:48;;;;;;;10.23;4.35;;;6.20;99.90;;;;;;5058833;28;19964;-75
2022/11/27 05:56:14;;;;;;;;;;;6.30;99.90;;;;;;5060157;28;20060;-74
2022/11/27 05:58:42;;;;;;;9.27;4.15;;;6.40;99.90;;;;;;5059915;28;19928;-75
2022/11/27 06:01:09;;;;;;;11.55;4.20;;;7.10;99.90;;;;;;5064638;28;20041;-74
2022/11/27 06:03:37;;;;;;;11.32;4.47;;;6.30;99.90;;;;;;5063768;28;20549;-75
2022/11/27 06:06:12;;;;;;;12.27;4.75;;;6.30;99.90;;;;;;5061267;28;20118;-75
2022/11/27 06:08:38;;;;;;;12.07;4.60;;;5.70;99.90;;;;;;5065300;28;20044;-75
2022/11/27 06:11:16;;;;;;;10.77;4.75;;;7.30;99.90;;;;;;5060582;28;20041;-75
2022/11/27 06:13:42;;;;;;;9.07;4.45;;;6.30;99.90;;;;;;5063287;28;20036;-75
2022/11/27 06:16:17;;;;;;;10.27;5.07;;;6.30;99.90;;;;;;5081521;28;20090;-75
2022/11/27 06:18:44;;;;;;;13.68;4.80;;;6.30;99.90;;;;;;5062327;28;20047;-74
2022/11/27 06:21:12;;;;;;;8.05;3.55;;;6.90;99.90;;;;;;5062683;28;20068;-75
2022/11/27 06:23:41;;;;;;;11.10;4.00;;;6.40;99.90;;;;;;5060890;28;20044;-75
2022/11/27 06:26:25;;;;;;;11.05;4.65;;;6.40;99.90;;;;;;5064604;28;20495;-75
2022/11/27 06:28:51;;;;;;;10.70;3.88;;;5.80;99.90;;;;;;5063833;28;20055;-76
2022/11/27 06:31:17;;;;;;;;;;;6.40;99.90;;;;;;5061847;28;20045;-75
2022/11/27 06:33:44;;;;;;;8.32;3.85;;;6.40;99.90;;;;;;5064665;28;20275;-76
2022/11/27 06:36:12;;;;;;;10.43;4.15;;;6.30;99.90;;;;;;5062960;28;20119;-76
2022/11/27 06:38:38;;;;;;;8.27;3.70;;;6.30;99.90;;;;;;5060936;28;20044;-75
2022/11/27 06:41:08;;;;;;;;;;;6.40;99.90;;;;;;5062140;28;20044;-75
2022/11/27 06:43:34;;;;;;;10.18;4.07;;;6.40;99.90;;;;;;5062882;28;19927;-74
2022/11/27 06:46:01;;;;;;;10.23;4.05;;;6.20;99.90;;;;;;5060974;28;20045;-75
2022/11/27 06:48:26;;;;;;;12.35;3.80;;;6.30;99.90;;;;;;5065984;28;20040;-74
2022/11/27 06:50:59;;;;;;;;;;;6.40;99.90;;;;;;5061395;28;20547;-74
2022/11/27 06:53:25;;;;;;;9.98;3.92;;;8.20;99.90;;;;;;5062747;28;19920;-74
2022/11/27 06:55:50;;;;;;;;;;;6.30;99.90;;;;;;5065474;28;20096;-74
2022/11/27 06:58:16;;;;;;;12.93;4.15;;;6.40;99.90;;;;;;5068560;28;19921;-74
2022/11/27 07:00:41;;;;;;;;;;;6.40;99.90;;;;;;5068926;28;20086;-74
2022/11/27 07:03:13;;;;;;;10.48;3.83;;;6.40;99.90;;;;;;5059931;28;19924;-75
2022/11/27 07:05:39;;;;;;;8.02;3.30;;;6.20;99.90;;;;;;5064150;28;20791;-73
2022/11/27 07:08:04;;;;;;;;;;;6.80;99.90;;;;;;5085154;28;20037;-74
2022/11/27 07:10:33;;;;;;;9.05;4.15;;;6.30;99.90;;;;;;5059287;28;20352;-75
2022/11/27 07:13:00;;;;;;;11.85;3.90;;;6.40;99.90;;;;;;5061344;28;20045;-75
2022/11/27 07:15:25;;;;;;;;;;;6.30;99.90;;;;;;5060776;28;20484;-76
2022/11/27 07:17:51;;;;;;;8.05;3.63;;;5.90;99.90;;;;;;5059429;28;20015;-75
2022/11/27 07:20:17;;;;;;;;;;;6.20;99.90;;;;;;5062463;28;20043;-76
2022/11/27 07:22:42;;;;;;;9.07;3.53;;;6.10;99.90;;;;;;5059459;28;19995;-75
2022/11/27 07:25:08;;;;;;;;;;;6.20;99.90;;;;;;5061709;28;20129;-75
2022/11/27 07:27:34;;;;;;;10.23;3.17;;;6.20;99.90;;;;;;5060562;28;19917;-75
2022/11/27 07:29:59;;;;;;;;;;;6.30;99.90;;;;;;5062900;28;20033;-75
2022/11/27 07:32:25;;;;;;;9.88;3.58;;;6.20;99.90;;;;;;5062068;28;19999;-75
2022/11/27 07:34:50;;;;;;;;;;;6.20;99.90;;;;;;5063232;28;20040;-75
2022/11/27 07:37:16;;;;;;;10.57;4.05;;;6.20;99.90;;;;;;5080237;28;19959;-74
2022/11/27 07:39:44;;;;;;;6.43;2.92;;;6.10;99.90;;;;;;5060294;28;20041;-75
2022/11/27 07:42:10;;;;;;;;;;;6.30;99.90;;;;;;5060892;28;20059;-75
2022/11/27 07:44:35;;;;;;;6.30;3.42;;;6.30;99.90;;;;;;5061222;28;19975;-75
2022/11/27 07:47:01;;;;;;;;;;;6.20;99.90;;;;;;5062341;28;20441;-75
2022/11/27 07:49:26;;;;;;;10.15;3.50;;;6.30;99.90;;;;;;5057911;28;19920;-74
2022/11/27 07:51:52;;;;;;;;;;;7.10;99.90;;;;;;5061453;28;20114;-74
2022/11/27 07:54:18;;;;;;;8.63;3.25;;;6.40;99.90;;;;;;5060705;28;19921;-76
2022/11/27 07:56:43;;;;;;;;;;;6.30;99.90;;;;;;5063258;28;20041;-76
2022/11/27 07:59:09;;;;;;;9.77;3.60;;;7.10;99.90;;;;;;5060111;28;19924;-74
2022/11/27 08:01:34;;;;;;;;;;;6.40;99.90;;;;;;5060405;28;20488;-73
2022/11/27 08:04:00;;;;;;;9.20;3.03;;;6.30;99.90;;;;;;5062099;28;19920;-79
2022/11/27 08:06:26;;;;;;;;;;;6.20;99.90;;;;;;5063757;28;20048;-80
2022/11/27 08:08:54;;;;;;;7.35;3.03;;;6.30;99.90;;;;;;5063244;28;19935;-78
2022/11/27 08:11:29;;;;;;;11.07;4.30;;;6.20;99.90;;;;;;5062454;28;20041;-78
2022/11/27 08:13:57;;;;;;;7.28;3.30;;;6.20;99.90;;;;;;5065240;28;20072;-74
2022/11/27 08:16:22;;;;;;;10.25;4.45;;;7.10;99.90;;;;;;5068382;28;20097;-77
2022/11/27 08:18:48;;;;;;;;;;;6.10;99.90;;;;;;5077794;28;20049;-89
2022/11/27 08:21:17;;;;;;;9.05;3.30;;;6.20;99.90;;;;;;5075090;28;19927;-80
2022/11/27 08:23:43;;;;;;;10.00;3.60;;;6.10;99.90;;;;;;5064658;28;20131;-82
2022/11/27 08:26:09;;;;;;;;;;;6.10;99.90;;;;;;5065584;28;20053;-83
2022/11/27 08:28:36;;;;;;;5.93;3.28;;;6.20;99.90;;;;;;5069223;28;19916;-81
2022/11/27 08:31:06;;;;;;;8.68;3.38;;;6.90;99.90;;;;;;5073011;28;20017;-82
2022/11/27 08:33:32;;;;;;;7.75;3.28;;;6.10;99.90;;;;;;5074750;28;20040;-79
2022/11/27 08:35:58;;;;;;;7.40;2.78;;;6.20;99.90;;;;;;5068063;28;20499;-78
2022/11/27 08:38:24;;;;;;;;;;;6.20;99.90;;;;;;5058771;28;20059;-75
2022/11/27 08:40:58;;;;;;;8.95;3.47;;;6.40;99.90;;;;;;5060925;28;19943;-79
2022/11/27 08:43:24;;;;;;;10.05;4.38;;;6.20;99.90;;;;;;5057631;28;20045;-81
2022/11/27 08:45:51;;;;;;;7.45;3.40;;;7.40;99.90;;;;;;5060333;28;20067;-75
2022/11/27 08:48:17;;;;;;;6.00;3.10;;;6.30;99.90;;;;;;5062022;28;20560;-79
2022/11/27 08:50:43;;;;;;;;;;;6.20;99.90;;;;;;5066025;28;20504;-81
2022/11/27 08:53:08;;;;;;;6.78;2.63;;;7.60;99.90;;;;;;5061826;28;20041;-84
2022/11/27 08:55:34;;;;;;;;;;;7.20;99.90;;;;;;5061592;28;20123;-74
2022/11/27 08:58:00;;;;;;;5.78;2.72;;;6.10;99.90;;;;;;5061756;28;20424;-85
2022/11/27 09:00:25;;;;;;;;;;;6.20;99.90;;;;;;5061939;28;20040;-79
2022/11/27 09:02:51;;;;;;;9.07;3.75;;;6.30;99.90;;;;;;5063026;28;19928;-77
2022/11/27 09:05:16;;;;;;;;;;;6.20;99.90;;;;;;5059956;28;20080;-80
2022/11/27 09:07:42;;;;;;;7.70;3.00;;;6.20;99.90;;;;;;5084374;28;19916;-75
2022/11/27 09:10:08;;;;;;;;;;;6.30;99.90;;;;;;5063191;28;20071;-82
2022/11/27 09:12:34;;;;;;;6.15;2.80;;;6.30;99.90;;;;;;5058290;28;19925;-77
2022/11/27 09:14:59;;;;;;;;;;;6.30;99.90;;;;;;5063234;28;20052;-81
2022/11/27 09:17:25;;;;;;;6.05;2.72;;;6.40;99.90;;;;;;5059719;28;19950;-83
2022/11/27 09:19:51;;;;;;;;;;;6.40;99.90;;;;;;5061536;28;20041;-85
2022/11/27 09:22:17;;;;;;;5.43;2.80;;;6.40;99.90;;;;;;5059552;28;19917;-83
2022/11/27 09:24:43;;;;;;;9.30;3.47;;;6.40;99.90;;;;;;5061111;28;20127;-78
2022/11/27 09:27:08;;;;;;;;;;;6.40;99.90;;;;;;5058146;28;20116;-89
2022/11/27 09:29:37;;;;;;;7.05;3.10;;;7.50;99.90;;;;;;5059313;28;19924;-87
2022/11/27 09:32:06;;;;;;;7.38;3.05;;;6.40;99.90;;;;;;5059527;28;20083;-81
2022/11/27 09:34:31;;;;;;;;;;;6.30;99.90;;;;;;5059545;28;20428;-81
2022/11/27 09:36:57;;;;;;;8.18;3.08;;;6.40;99.90;;;;;;5065980;28;19916;-80
2022/11/27 09:39:25;;;;;;;;;;;6.50;99.90;;;;;;5063274;28;20036;-87
2022/11/27 09:41:53;;;;;;;6.60;2.72;;;6.40;99.90;;;;;;5062657;28;19973;-84
2022/11/27 09:44:41;;;;;;;7.05;2.95;;;7.40;99.90;;;;;;5061587;28;20040;-74
2022/11/27 09:47:34;;;;;;;7.63;3.03;;;6.50;99.90;;;;;;5065083;28;20037;-82
2022/11/27 09:50:29;;;;;;;9.13;3.08;;;6.40;99.90;;;;;;5062275;28;20041;-86
2022/11/27 09:53:24;;;;;;;8.60;3.10;;;6.60;99.90;;;;;;5060707;28;20040;-82
2022/11/27 09:55:53;;;;;;;7.75;3.50;;;6.60;99.90;;;;;;5025472;28;20484;-84
2022/11/27 09:58:28;;;;;;;8.18;3.65;;;6.50;99.90;;;;;;5064330;28;20048;-81
2022/11/27 10:00:53;;;;;;;6.75;3.58;;;6.50;99.90;;;;;;5063416;28;20064;-84
2022/11/27 10:03:22;;;;;;;;;;;6.40;99.90;;;;;;5057287;28;20083;-76
2022/11/27 10:06:09;;;;;;;7.78;2.90;;;6.40;99.90;;;;;;5062524;28;19924;-79
2022/11/27 10:08:54;;;;;;;;;;;6.40;99.90;;;;;;5060875;28;20070;-80
2022/11/27 10:11:31;;;;;;;7.18;3.47;;;6.40;99.90;;;;;;5062761;28;19966;-80
2022/11/27 10:14:16;;;;;;;8.05;3.38;;;6.50;99.90;;;;;;5068146;28;20040;-81
2022/11/27 10:17:02;;;;;;;9.82;3.53;;;6.40;99.90;;;;;;5064752;28;20121;-72
2022/11/27 10:19:57;;;;;;;8.40;3.85;;;6.40;99.90;;;;;;5061647;28;20548;-77
2022/11/27 10:22:28;;;;;;;8.48;3.22;;;6.50;99.90;;;;;;5032965;28;20051;-77
2022/11/27 10:25:15;;;;;;;9.32;3.45;;;6.40;99.90;;;;;;5065306;28;20169;-71
2022/11/27 10:28:04;;;;;;;9.23;3.63;;;6.50;99.90;;;;;;5063537;28;20060;-73
2022/11/27 10:30:36;;;;;;;8.00;3.35;;;6.60;99.90;;;;;;5066940;28;20048;-77
2022/11/27 10:33:02;;;;;;;10.30;4.00;;;6.50;99.90;;;;;;5063952;28;20037;-79
2022/11/27 10:35:31;;;;;;;8.00;3.55;;;6.40;99.90;;;;;;5063194;28;20374;-77
2022/11/27 10:38:02;;;;;;;8.13;4.13;;;6.40;99.90;;;;;;5060804;28;20495;-74
2022/11/27 10:40:50;;;;;;;8.00;3.78;;;6.50;99.90;;;;;;5063925;28;20040;-76
2022/11/27 10:43:19;;;;;;;9.35;3.97;;;6.40;99.90;;;;;;5059325;28;20120;-76
2022/11/27 10:46:11;;;;;;;7.85;4.30;;;6.50;99.90;;;;;;5062988;28;20040;-85
2022/11/27 10:48:40;;;;;;;8.52;3.88;;;6.50;99.90;;;;;;5059060;28;20512;-77
2022/11/27 10:51:17;;;;;;;10.50;4.05;;;6.40;99.90;;;;;;5063644;28;20044;-77
2022/11/27 10:53:49;;;;;;;8.23;3.70;;;6.50;99.90;;;;;;5057657;28;20037;-75
2022/11/27 10:56:50;;;;;;;10.68;5.03;;;6.60;99.90;;;;;;5068624;28;20464;-77
2022/11/27 10:59:33;;;;;;;11.85;3.88;;;6.60;99.90;;;;;;5019295;28;20171;-79
2022/11/27 11:02:00;;;;;;;11.13;4.68;;;6.60;99.90;;;;;;5056175;28;20056;-76
2022/11/27 11:04:29;;;;;;;9.73;3.70;;;6.60;99.90;;;;;;5064396;28;20508;-76
2022/11/27 11:06:55;;;;;;;8.45;4.30;;;6.60;99.90;;;;;;5062410;28;20052;-75
2022/11/27 11:09:30;;;;;;;8.23;3.72;;;6.70;99.90;;;;;;5067789;28;20127;-80
2022/11/27 11:12:24;;;;;;;13.13;5.38;;;6.70;99.90;;;;;;5065891;28;20040;-77
2022/11/27 11:14:58;;;;;;;8.60;4.57;;;6.70;99.90;;;;;;5061572;28;20507;-76
2022/11/27 11:17:36;;;;;;;12.15;4.20;;;6.70;99.90;;;;;;5063470;28;20488;-75
2022/11/27 11:20:20;;;;;;;8.93;3.92;;;6.70;99.90;;;;;;5061134;28;20102;-81
2022/11/27 11:22:46;;;;;;;11.57;4.65;;;6.80;99.90;;;;;;5059372;28;20045;-82
2022/11/27 11:25:20;;;;;;;11.65;4.63;;;6.90;99.90;;;;;;5066057;28;20115;-89
2022/11/27 11:27:48;;;;;;;8.75;4.53;;;7.00;99.90;;;;;;5066174;28;20040;-82
2022/11/27 11:30:27;;;;;;;9.18;4.10;;;6.70;99.90;;;;;;5063672;28;20561;-85
2022/11/27 11:33:01;;;;;;;7.82;3.83;;;6.80;99.90;;;;;;5067168;28;20029;-73
2022/11/27 11:35:31;;;;;;;10.18;4.40;;;6.90;99.90;;;;;;5060146;28;20047;-74
2022/11/27 11:38:02;;;;;;;16.52;5.28;;;6.80;99.90;;;;;;5064272;28;20383;-80
2022/11/27 11:40:32;;;;;;;9.30;4.60;;;8.40;99.90;;;;;;5064523;28;20119;-73
2022/11/27 11:43:20;;;;;;;9.65;4.80;;;7.00;99.90;;;;;;5063627;28;20041;-78
2022/11/27 11:45:49;;;;;;;10.13;4.65;;;6.80;99.90;;;;;;5060697;28;20048;-73
2022/11/27 11:48:25;;;;;;;10.55;4.65;;;6.70;99.90;;;;;;5062612;28;20047;-81
2022/11/27 11:50:59;;;;;;;15.05;5.05;;;6.90;99.90;;;;;;5062086;28;20072;-84
2022/11/27 11:53:44;;;;;;;11.25;5.00;;;6.80;99.90;;;;;;5069356;28;20435;-80
2022/11/27 11:56:32;;;;;;;9.57;4.45;;;7.70;99.90;;;;;;5059166;28;20412;-87
2022/11/27 11:59:24;;;;;;;11.60;4.65;;;6.80;99.90;;;;;;5066755;28;20094;-83
2022/11/27 12:01:56;;;;;;;8.98;5.07;;;6.80;99.90;;;;;;5069957;28;20049;-88
2022/11/27 12:04:43;;;;;;;12.80;5.28;;;6.90;99.90;;;;;;5066294;28;20135;-87
2022/11/27 12:07:28;;;;;;;12.23;4.97;;;6.90;99.90;;;;;;5059439;28;20064;-82
2022/11/27 12:10:14;;;;;;;11.43;5.13;;;6.80;99.90;;;;;;5067693;28;20044;-80
2022/11/27 12:13:30;;;;;;;9.98;4.53;;;6.90;99.90;;;;;;5063325;28;20043;-84
2022/11/27 12:16:33;;;;;;;11.95;4.28;;;6.90;99.90;;;;;;5018385;28;20048;-78
2022/11/27 12:19:33;;;;;;;10.07;5.47;;;6.80;99.90;;;;;;5062410;28;20070;-85
2022/11/27 12:22:18;;;;;;;11.95;5.60;;;6.80;99.90;;;;;;5061819;28;20518;-82
2022/11/27 12:25:18;;;;;;;11.85;5.10;;;8.70;99.90;;;;;;5059349;28;20037;-78
2022/11/27 12:28:15;;;;;;;12.98;5.97;;;6.70;99.90;;;;;;5028544;28;20396;-83
2022/11/27 12:30:57;;;;;;;16.13;5.07;;;6.70;99.90;;;;;;5079109;28;20037;-87
2022/11/27 12:33:57;;;;;;;10.60;5.00;;;6.80;99.90;;;;;;5062702;28;20458;-78
2022/11/27 12:36:43;;;;;;;11.85;5.40;;;6.90;99.90;;;;;;5061031;28;20033;-75
2022/11/27 12:39:18;;;;;;;;;;;7.70;99.90;;;;;;5061919;28;20049;-84
2022/11/27 12:42:00;;;;;;;12.43;4.97;;;6.70;99.90;;;;;;5059013;28;19920;-75
2022/11/27 12:45:02;;;;;;;14.02;6.35;;;6.80;99.90;;;;;;5055188;28;20075;-86
2022/11/27 12:47:42;;;;;;;12.75;5.97;;;6.80;99.90;;;;;;5063583;28;20041;-87
2022/11/27 12:50:32;;;;;;;18.48;6.30;;;6.80;99.90;;;;;;5065230;28;20052;-82
2022/11/27 12:53:10;;;;;;;16.50;6.25;;;6.80;99.90;;;;;;5064113;28;20071;-75
2022/11/27 12:55:39;;;;;;;15.65;6.25;;;6.80;99.90;;;;;;5060655;28;20404;-76
2022/11/27 12:58:17;;;;;;;14.23;6.63;;;6.90;99.90;;;;;;5064951;28;20431;-81
2022/11/27 13:00:43;;;;;;;10.80;5.57;;;6.90;99.90;;;;;;5064550;28;20039;-83
2022/11/27 13:03:21;;;;;;;;;;;6.80;99.90;;;;;;5064928;28;20143;-85
2022/11/27 13:05:54;;;;;;;12.68;5.72;;;6.90;99.90;;;;;;5060056;28;19942;-77
2022/11/27 13:08:29;;;;;;;15.02;7.05;;;6.90;99.90;;;;;;5059618;28;20045;-77
2022/11/27 13:11:09;;;;;;;10.77;5.30;;;6.80;99.90;;;;;;5060837;28;20144;-81
2022/11/27 13:13:38;;;;;;;11.88;6.07;;;6.80;99.90;;;;;;5067951;28;20060;-83
2022/11/27 13:16:44;;;;;;;12.07;5.05;;;6.90;99.90;;;;;;5068626;28;20083;-79
2022/11/27 13:19:26;;;;;;;13.02;5.80;;;6.90;99.90;;;;;;5070469;28;20116;-84
2022/11/27 13:21:55;;;;;;;12.75;5.40;;;6.90;99.90;;;;;;5066244;28;20041;-76
2022/11/27 13:24:25;;;;;;;14.35;6.45;;;6.90;99.90;;;;;;5064364;28;20045;-73
2022/11/27 13:27:05;;;;;;;11.25;5.57;;;7.00;99.90;;;;;;5069918;28;20537;-85
2022/11/27 13:29:56;;;;;;;12.02;5.30;;;6.90;99.90;;;;;;5066409;28;20044;-78
2022/11/27 13:32:29;;;;;;;12.88;5.93;;;6.90;99.90;;;;;;5065868;28;20060;-74
2022/11/27 13:35:05;;;;;;;12.05;6.15;;;6.90;99.90;;;;;;5068885;28;20044;-80
2022/11/27 13:37:37;;;;;;;13.05;6.00;;;7.00;99.90;;;;;;5069427;28;20053;-83